Time;durP1;ratioP1;P1;durP2;ratioP2;P2;SDS_P1;SDS_P2;PMS_P1;PMS_P2;Temp;Humidity;BMP_temperature;BMP_pressure;BME280_temperature;BME280_humidity;BME280_pressure;Samples;Min_cycle;Max_cycle;Signal;HPM_P1;HPM_P2
2022/06/28 12:37:04;;;;;;;4.55;2.60;;;;;;;28.57;51.06;93330.19;5030516;27;1306372;-84
2022/06/28 12:39:30;;;;;;;7.25;3.50;;;;;;;29.13;51.14;93323.91;5009929;28;20053;-86
2022/06/28 12:41:57;;;;;;;11.68;4.10;;;;;;;28.92;49.24;93331.81;5022549;28;20092;-86
2022/06/28 12:44:24;;;;;;;3.97;3.20;;;;;;;29.09;49.53;93317.72;5022934;28;20042;-85
2022/06/28 12:46:53;;;;;;;3.08;2.50;;;;;;;29.12;48.45;93325.00;5024566;28;20046;-87
2022/06/28 12:49:20;;;;;;;6.93;3.05;;;;;;;28.43;48.98;93317.22;5025742;28;20088;-86
2022/06/28 12:51:47;;;;;;;4.85;2.83;;;;;;;28.26;51.45;93310.16;5025651;28;20095;-88
2022/06/28 12:54:16;;;;;;;4.60;3.15;;;;;;;28.37;50.50;93316.63;5025165;28;20046;-85
2022/06/28 12:56:44;;;;;;;4.20;3.13;;;;;;;28.36;52.52;93299.22;5025908;28;20104;-86
2022/06/28 12:59:11;;;;;;;3.97;2.97;;;;;;;28.90;50.77;93307.59;5025947;28;20464;-84
2022/06/28 13:01:38;;;;;;;3.75;2.80;;;;;;;28.40;50.12;93270.31;5026372;28;20111;-89
2022/06/28 13:04:05;;;;;;;9.60;2.92;;;;;;;28.64;49.08;93290.81;5024522;28;20049;-87
2022/06/28 13:06:32;;;;;;;5.45;2.70;;;;;;;28.92;48.83;93277.09;5010696;28;20502;-87
2022/06/28 13:08:59;;;;;;;4.07;2.83;;;;;;;29.00;49.40;93269.41;5025984;28;20096;-86
2022/06/28 13:11:27;;;;;;;7.47;2.90;;;;;;;28.94;49.70;93276.78;5025960;28;20056;-86
2022/06/28 13:13:54;;;;;;;4.30;2.70;;;;;;;28.60;49.79;93278.56;5026221;28;20140;-84
2022/06/28 13:16:21;;;;;;;4.60;3.10;;;;;;;28.93;49.73;93246.91;5026060;28;20065;-87
2022/06/28 13:18:48;;;;;;;5.18;2.95;;;;;;;28.67;49.60;93265.59;5025483;28;20429;-85
2022/06/28 13:21:15;;;;;;;4.32;2.80;;;;;;;28.79;47.13;93270.94;5025594;28;20056;-86
2022/06/28 13:23:41;;;;;;;3.28;2.50;;;;;;;28.93;47.85;93277.88;5024799;28;20052;-87
2022/06/28 13:26:08;;;;;;;7.20;2.92;;;;;;;28.89;48.63;93284.91;5025785;28;20096;-87
2022/06/28 13:28:36;;;;;;;3.88;2.70;;;;;;;28.69;47.19;93271.34;5025677;28;20045;-87
2022/06/28 13:31:03;;;;;;;3.65;2.58;;;;;;;28.41;47.23;93275.25;5025776;28;20045;-89
2022/06/28 13:33:30;;;;;;;3.40;2.75;;;;;;;28.47;48.27;93275.84;5025450;28;20054;-88
2022/06/28 13:35:57;;;;;;;3.65;3.13;;;;;;;28.07;48.88;93269.06;5025385;28;20550;-88
2022/06/28 13:38:24;;;;;;;3.33;2.70;;;;;;;28.68;48.12;93275.88;5025661;28;20160;-88
2022/06/28 13:40:51;;;;;;;6.57;2.85;;;;;;;28.70;47.43;93270.25;5025485;28;20128;-86
2022/06/28 13:46:00;;;;;;;4.10;2.42;;;;;;;29.03;46.70;93258.19;5022863;28;20397;-87
2022/06/28 13:48:27;;;;;;;3.40;2.50;;;;;;;28.98;49.34;93261.03;5012015;28;20046;-87
2022/06/28 13:50:54;;;;;;;4.32;3.00;;;;;;;29.36;48.51;93265.34;5012214;28;20049;-87
2022/06/28 13:53:20;;;;;;;4.95;2.97;;;;;;;29.55;48.30;93246.31;5012285;28;20057;-87
2022/06/28 13:55:48;;;;;;;3.97;2.72;;;;;;;28.99;47.71;93252.00;5011876;28;20382;-86
2022/06/28 13:58:15;;;;;;;4.57;3.08;;;;;;;29.19;47.91;93245.13;5012119;28;20453;-88
2022/06/28 14:00:42;;;;;;;5.22;3.38;;;;;;;29.66;47.58;93259.13;5011999;28;20049;-87
2022/06/28 14:03:11;;;;;;;6.25;2.97;;;;;;;29.29;49.00;93265.88;5011986;28;20058;-86
2022/06/28 14:05:38;;;;;;;3.58;2.67;;;;;;;28.94;47.78;93252.97;5003195;28;20042;-88
2022/06/28 14:08:06;;;;;;;7.47;2.80;;;;;;;29.01;47.75;93263.78;5007121;28;20597;-87
2022/06/28 14:10:33;;;;;;;3.50;2.60;;;;;;;28.48;46.20;93266.84;5011967;28;20453;-87
2022/06/28 14:13:01;;;;;;;3.58;2.35;;;;;;;28.55;46.72;93255.75;5011870;28;20159;-86
2022/06/28 14:15:28;;;;;;;7.45;2.92;;;;;;;28.52;47.42;93246.59;5011665;28;20387;-87
2022/06/28 14:17:55;;;;;;;3.67;2.63;;;;;;;28.23;48.15;93250.06;5011725;28;20058;-87
2022/06/28 14:20:23;;;;;;;3.35;2.75;;;;;;;28.00;49.32;93247.69;5011712;28;20096;-85
2022/06/28 14:22:50;;;;;;;3.60;2.83;;;;;;;27.90;50.73;93237.50;5011281;28;20042;-85
2022/06/28 14:25:17;;;;;;;3.90;2.78;;;;;;;27.87;52.11;93241.53;5011437;28;20064;-85
2022/06/28 14:27:44;;;;;;;3.42;2.92;;;;;;;27.58;51.92;93219.28;5011202;28;20042;-85
2022/06/28 14:30:12;;;;;;;3.95;2.88;;;;;;;27.82;51.92;93226.63;5011234;28;20057;-87
2022/06/28 14:32:38;;;;;;;4.88;2.85;;;;;;;27.67;51.65;93219.28;5011368;28;20104;-85
2022/06/28 14:35:06;;;;;;;3.95;2.78;;;;;;;28.07;51.68;93226.03;5011132;28;20120;-85
2022/06/28 14:37:34;;;;;;;4.00;2.90;;;;;;;28.44;52.36;93233.44;5011218;28;20065;-89
2022/06/28 14:40:01;;;;;;;6.28;2.97;;;;;;;28.35;52.16;93222.94;5011082;28;20049;-89
2022/06/28 14:42:28;;;;;;;4.50;2.90;;;;;;;28.08;49.83;93219.66;5011076;28;20048;-87
2022/06/28 14:44:55;;;;;;;6.85;3.03;;;;;;;28.22;49.64;93256.41;5011060;28;20140;-87
2022/06/28 14:47:22;;;;;;;4.75;2.75;;;;;;;28.02;51.75;93208.53;5010874;28;20520;-88
2022/06/28 14:49:49;;;;;;;4.88;2.88;;;;;;;27.99;51.06;93214.44;5010954;28;20060;-87
2022/06/28 14:52:15;;;;;;;5.28;2.70;;;;;;;28.54;52.04;93244.41;5011584;28;20068;-87
2022/06/28 14:54:43;;;;;;;3.83;2.85;;;;;;;28.15;49.92;93246.34;5011640;28;20112;-86
2022/06/28 14:57:10;;;;;;;4.70;2.70;;;;;;;28.24;49.36;93243.69;5007440;28;20068;-87
2022/06/28 14:59:37;;;;;;;4.47;2.80;;;;;;;28.66;52.38;93227.81;5009803;28;20046;-87
2022/06/28 15:02:04;;;;;;;3.95;3.03;;;;;;;28.68;49.43;93233.56;5010975;28;20121;-86
2022/06/28 15:04:31;;;;;;;3.53;2.65;;;;;;;28.59;50.15;93227.56;5009290;28;20050;-88
2022/06/28 15:06:58;;;;;;;4.65;2.90;;;;;;;28.53;49.08;93240.22;5006286;28;20116;-86
2022/06/28 15:09:24;;;;;;;3.90;3.00;;;;;;;28.51;47.27;93255.63;5009431;28;20050;-87
2022/06/28 15:11:52;;;;;;;4.82;3.13;;;;;;;28.65;47.07;93246.66;5010745;28;20046;-84
2022/06/28 15:14:19;;;;;;;2.88;2.17;;;;;;;28.25;45.36;93261.84;5007680;28;20115;-87
2022/06/28 15:16:46;;;;;;;4.43;2.70;;;;;;;28.08;47.45;93254.78;5010252;28;20518;-86
2022/06/28 15:19:13;;;;;;;4.93;3.20;;;;;;;28.42;48.52;93241.72;5010657;28;20046;-85
2022/06/28 15:32:42;;;;;;;9.35;3.05;;;;;;;28.12;49.36;93226.66;5010173;28;20140;-85
2022/06/28 15:35:09;;;;;;;3.95;2.42;;;;;;;27.53;47.89;93199.13;5009846;28;20046;-86
2022/06/28 15:37:36;;;;;;;3.55;2.75;;;;;;;27.67;48.47;93206.84;5010108;28;20062;-86
2022/06/28 15:40:03;;;;;;;4.97;3.10;;;;;;;27.85;47.77;93212.81;5010217;28;20054;-86
2022/06/28 15:42:32;;;;;;;3.90;2.63;;;;;;;27.82;49.10;93204.75;5009975;28;20042;-87
2022/06/28 15:44:59;;;;;;;3.85;2.90;;;;;;;27.59;50.92;93205.78;5005664;28;20050;-85
2022/06/28 15:47:26;;;;;;;5.47;3.40;;;;;;;27.56;51.62;93210.91;5000254;28;20473;-85
2022/06/28 15:49:53;;;;;;;3.95;2.83;;;;;;;27.64;51.93;93211.97;5010129;28;20050;-86
2022/06/28 15:52:19;;;;;;;4.68;2.88;;;;;;;27.41;52.82;93209.56;5010000;28;20054;-86
2022/06/28 15:54:46;;;;;;;5.95;2.88;;;;;;;27.53;52.48;93211.53;5009798;28;20061;-86
2022/06/28 15:57:13;;;;;;;6.22;2.95;;;;;;;27.51;53.54;93208.44;5003731;28;20564;-87
2022/06/28 15:59:42;;;;;;;5.68;3.10;;;;;;;27.68;54.26;93207.63;5009106;28;20116;-84
2022/06/28 16:02:08;;;;;;;8.15;3.42;;;;;;;27.84;53.87;93210.50;5008966;28;20053;-86
2022/06/28 16:04:36;;;;;;;10.27;5.85;;;;;;;27.82;52.98;93223.25;5009404;28;20042;-86
2022/06/28 16:07:04;;;;;;;6.13;4.20;;;;;;;27.73;53.48;93220.66;4996875;28;20138;-86
2022/06/28 16:09:31;;;;;;;4.18;3.42;;;;;;;27.81;53.78;93226.97;5009543;28;20050;-86
2022/06/28 16:14:39;;;;;;;8.48;4.00;;;;;;;27.42;54.71;93238.28;5009815;28;20050;-86
2022/06/28 16:17:07;;;;;;;9.93;4.82;;;;;;;27.43;55.33;93233.75;5009469;28;20058;-86
2022/06/28 16:19:33;;;;;;;21.95;13.88;;;;;;;27.40;56.47;93244.94;5009402;28;20049;-86
2022/06/28 16:22:00;;;;;;;8.18;5.90;;;;;;;27.00;57.71;93240.69;5009242;28;20050;-86
2022/06/28 16:24:27;;;;;;;8.55;3.20;;;;;;;26.26;49.76;93254.44;5010263;28;20050;-85
2022/06/28 16:26:54;;;;;;;3.15;2.58;;;;;;;25.88;51.52;93247.84;5008858;28;20045;-85
2022/06/28 16:29:21;;;;;;;4.82;2.83;;;;;;;25.90;57.69;93224.63;5008469;28;20111;-86
2022/06/28 16:31:48;;;;;;;6.10;2.67;;;;;;;25.45;60.38;93228.91;5009350;28;20053;-87
2022/06/28 16:34:16;;;;;;;4.50;2.97;;;;;;;24.79;61.57;93230.22;5009550;28;20046;-86
2022/06/28 16:36:43;;;;;;;6.80;3.47;;;;;;;24.13;71.17;93246.38;5009528;28;20945;-84
2022/06/28 16:39:09;;;;;;;3.92;2.97;;;;;;;23.84;74.79;93252.69;5009197;28;20046;-88
2022/06/28 16:41:36;;;;;;;5.13;3.70;;;;;;;23.13;82.79;93251.03;5003131;28;20038;-86
2022/06/28 16:44:03;;;;;;;7.35;4.22;;;;;;;22.96;85.70;93244.47;5008595;28;20046;-86
2022/06/28 16:46:53;;;;;;;7.07;4.22;;;;;;;22.58;81.49;93221.72;5008799;28;20050;-87
2022/06/28 16:49:21;;;;;;;6.20;3.20;;;;;;;22.75;74.99;93228.28;5006407;28;20497;-87
2022/06/28 16:51:48;;;;;;;5.78;3.75;;;;;;;22.27;77.30;93240.44;5009243;28;20103;-85
2022/06/28 16:54:15;;;;;;;12.60;6.15;;;;;;;21.82;77.74;93254.59;5009054;28;20517;-84
2022/06/28 16:56:42;;;;;;;9.70;5.45;;;;;;;21.15;83.97;93330.97;5009256;28;20157;-84
2022/06/28 16:59:10;;;;;;;7.60;4.15;;;;;;;20.66;84.30;93364.66;5009349;28;20046;-84
2022/06/28 17:01:37;;;;;;;8.55;4.30;;;;;;;19.79;98.34;93401.13;5009468;28;20156;-85
2022/06/28 17:04:04;;;;;;;5.25;3.97;;;;;;;19.52;100.00;93389.16;5008606;28;20041;-83
2022/06/28 17:09:17;;;;;;;7.40;4.47;;;;;;;18.04;100.00;93382.19;5008870;28;20052;-79
2022/06/28 17:11:43;;;;;;;7.30;4.90;;;;;;;17.91;100.00;93386.00;5009528;28;20112;-81
2022/06/28 17:14:10;;;;;;;7.97;5.25;;;;;;;17.61;100.00;93403.78;5009098;28;20684;-82
2022/06/28 17:16:37;;;;;;;9.40;6.20;;;;;;;17.44;100.00;93455.03;5007702;28;20192;-81
2022/06/28 17:19:04;;;;;;;6.43;5.10;;;;;;;17.90;100.00;93473.59;4992370;28;20046;-80
2022/06/28 17:21:32;;;;;;;7.68;5.93;;;;;;;18.29;100.00;93490.00;5007992;28;20046;-79
2022/06/28 17:23:59;;;;;;;11.48;7.25;;;;;;;18.70;100.00;93474.63;5012550;28;20050;-82
2022/06/28 17:26:25;;;;;;;10.80;6.30;;;;;;;18.68;100.00;93466.28;5012726;28;20054;-77
2022/06/28 17:28:52;;;;;;;6.18;3.78;;;;;;;18.88;100.00;93464.03;5012522;28;20104;-79
2022/06/28 17:31:19;;;;;;;7.47;4.78;;;;;;;18.72;100.00;93465.75;5012679;28;20053;-77
2022/06/28 17:33:45;;;;;;;7.07;4.50;;;;;;;18.49;100.00;93468.53;5012663;28;20050;-77
2022/06/28 17:36:12;;;;;;;6.18;4.72;;;;;;;18.18;100.00;93464.97;5012305;28;20049;-78
2022/06/28 17:38:40;;;;;;;5.18;4.45;;;;;;;18.43;100.00;93449.50;5012334;28;20046;-78
2022/06/28 17:41:07;;;;;;;5.45;3.65;;;;;;;18.66;100.00;93444.94;5011878;28;20045;-77
2022/06/28 17:43:34;;;;;;;7.13;4.13;;;;;;;18.93;100.00;93443.22;5012538;28;20049;-80
2022/06/28 17:46:00;;;;;;;6.93;4.13;;;;;;;19.30;100.00;93442.28;5012497;28;20053;-77
2022/06/28 17:48:27;;;;;;;5.18;4.35;;;;;;;19.50;100.00;93430.31;5011429;28;20116;-77
2022/06/28 17:50:54;;;;;;;8.15;4.40;;;;;;;19.75;100.00;93431.34;5011182;28;20046;-77
2022/06/28 17:53:21;;;;;;;5.85;4.38;;;;;;;19.93;100.00;93437.88;5010713;28;20570;-77
2022/06/28 17:55:49;;;;;;;7.78;4.95;;;;;;;19.97;100.00;93440.75;5009840;28;20445;-77
2022/06/28 17:58:15;;;;;;;8.27;4.97;;;;;;;20.14;100.00;93443.09;5009573;28;20100;-77
2022/06/28 18:00:42;;;;;;;5.97;4.05;;;;;;;20.22;100.00;93436.56;5010259;28;20045;-77
2022/06/28 18:03:09;;;;;;;6.82;4.03;;;;;;;20.34;100.00;93436.25;5011348;28;20513;-77
2022/06/28 18:05:36;;;;;;;6.97;4.50;;;;;;;20.46;100.00;93425.53;5003249;28;20089;-77
2022/06/28 18:08:03;;;;;;;9.75;4.88;;;;;;;20.54;100.00;93433.59;5006678;28;20075;-77
2022/06/28 18:10:30;;;;;;;12.45;5.40;;;;;;;20.61;100.00;93456.81;5011865;28;20092;-78
2022/06/28 18:12:58;;;;;;;8.30;5.57;;;;;;;20.47;100.00;93502.75;5011562;28;20498;-77
2022/06/28 18:15:25;;;;;;;9.00;4.70;;;;;;;20.17;100.00;93505.13;5011776;28;20100;-76
2022/06/28 18:17:52;;;;;;;6.07;4.32;;;;;;;19.30;100.00;93493.59;5011777;28;20057;-76
2022/06/28 18:20:19;;;;;;;7.25;5.15;;;;;;;18.93;100.00;93485.63;5011910;28;20473;-76
2022/06/28 18:22:46;;;;;;;6.78;5.10;;;;;;;18.93;100.00;93482.25;5011269;28;20046;-76
2022/06/28 18:25:12;;;;;;;8.68;5.07;;;;;;;18.84;100.00;93455.91;5011804;28;20050;-76
2022/06/28 18:27:39;;;;;;;7.75;5.40;;;;;;;18.97;100.00;93478.09;5011114;28;20489;-76
2022/06/28 18:30:08;;;;;;;5.97;4.63;;;;;;;18.96;100.00;93472.13;5012100;28;20101;-76
2022/06/28 18:32:37;;;;;;;6.57;5.13;;;;;;;18.73;100.00;93465.50;5011228;28;20099;-76
2022/06/28 18:35:04;;;;;;;7.30;5.45;;;;;;;18.76;100.00;93465.03;5011027;28;20137;-76
2022/06/28 18:37:31;;;;;;;8.02;6.20;;;;;;;18.99;100.00;93462.22;5011300;28;20057;-76
2022/06/28 18:39:58;;;;;;;11.27;7.05;;;;;;;19.12;100.00;93461.75;5011196;28;20054;-75
2022/06/28 18:42:25;;;;;;;9.95;6.82;;;;;;;19.35;100.00;93467.56;5011345;28;20595;-76
2022/06/28 18:44:52;;;;;;;8.45;5.72;;;;;;;19.55;100.00;93461.59;5011049;28;20104;-76
2022/06/28 18:47:20;;;;;;;7.25;5.30;;;;;;;19.75;100.00;93471.25;5011031;28;20490;-76
2022/06/28 18:49:47;;;;;;;9.05;5.57;;;;;;;19.93;100.00;93473.56;5011036;28;20045;-76
2022/06/28 18:52:14;;;;;;;8.38;4.88;;;;;;;19.94;100.00;93472.56;5010863;28;20049;-76
2022/06/28 18:54:41;;;;;;;7.20;5.20;;;;;;;19.99;100.00;93470.75;5011003;28;20461;-77
2022/06/28 18:57:07;;;;;;;6.93;5.32;;;;;;;20.02;100.00;93472.84;5001653;28;20054;-77
2022/06/28 18:59:34;;;;;;;8.82;4.60;;;;;;;20.07;100.00;93472.03;5001136;28;20054;-77
2022/06/28 19:02:01;;;;;;;8.50;4.90;;;;;;;20.10;100.00;93462.91;5010150;28;20042;-78
2022/06/28 19:04:30;;;;;;;5.38;3.63;;;;;;;20.08;100.00;93454.56;5010670;28;20050;-77
2022/06/28 19:06:57;;;;;;;6.57;3.80;;;;;;;19.97;100.00;93459.81;5002207;28;20445;-77
2022/06/28 19:09:26;;;;;;;7.43;4.30;;;;;;;20.09;100.00;93456.91;5010574;28;20046;-77
2022/06/28 19:11:53;;;;;;;5.03;3.67;;;;;;;20.07;100.00;93463.41;5010335;28;20042;-76
2022/06/28 19:14:20;;;;;;;5.03;3.60;;;;;;;20.09;100.00;93459.50;5009311;28;20046;-76
2022/06/28 19:16:48;;;;;;;5.32;3.72;;;;;;;20.07;100.00;93448.56;5008933;28;20042;-77
2022/06/28 19:19:17;;;;;;;6.57;3.95;;;;;;;20.15;100.00;93445.41;5008713;28;20042;-76
2022/06/28 19:21:45;;;;;;;6.22;3.78;;;;;;;20.05;100.00;93435.03;5010339;28;20038;-77
2022/06/28 19:24:12;;;;;;;5.07;3.63;;;;;;;20.12;100.00;93439.94;5009719;28;20493;-76
2022/06/28 19:26:39;;;;;;;6.05;4.55;;;;;;;20.06;100.00;93425.34;5009884;28;20046;-76
2022/06/28 19:29:06;;;;;;;8.77;4.00;;;;;;;20.04;100.00;93428.22;5009698;28;20092;-76
2022/06/28 19:31:37;;;;;;;7.15;3.95;;;;;;;19.82;100.00;93434.50;5009614;28;20568;-76
2022/06/28 19:34:04;;;;;;;6.35;4.03;;;;;;;19.81;100.00;93424.31;5005426;28;20501;-76
2022/06/28 19:36:31;;;;;;;6.40;4.22;;;;;;;19.85;100.00;93430.56;5006066;28;20108;-77
2022/06/28 19:39:01;;;;;;;5.70;4.20;;;;;;;19.73;100.00;93433.44;5006174;28;20054;-76
2022/06/28 19:41:28;;;;;;;6.88;4.45;;;;;;;19.63;100.00;93421.97;5006103;28;20498;-76
2022/06/28 19:43:54;;;;;;;7.22;4.45;;;;;;;19.70;100.00;93429.53;5006534;28;20058;-76
2022/06/28 19:46:21;;;;;;;6.38;4.82;;;;;;;19.70;100.00;93428.75;5005658;28;20045;-76
2022/06/28 19:48:48;;;;;;;6.88;5.05;;;;;;;19.58;100.00;93424.56;5005859;28;20502;-76
2022/06/28 19:51:17;;;;;;;6.20;4.70;;;;;;;19.37;100.00;93426.41;5005291;28;20453;-77
2022/06/28 19:53:44;;;;;;;5.75;4.85;;;;;;;19.43;100.00;93427.97;5005882;28;20494;-76
2022/06/28 19:56:12;;;;;;;6.70;4.82;;;;;;;19.41;100.00;93424.84;5005947;28;20066;-76
2022/06/28 19:58:38;;;;;;;8.13;5.05;;;;;;;19.44;100.00;93432.13;5005822;28;20050;-76
2022/06/28 20:01:05;;;;;;;10.88;4.80;;;;;;;19.41;100.00;93432.66;5005915;28;20331;-76
2022/06/28 20:03:32;;;;;;;7.43;4.95;;;;;;;19.45;100.00;93438.91;5006343;28;20116;-76
2022/06/28 20:05:59;;;;;;;6.85;5.30;;;;;;;19.51;100.00;93447.50;4993967;28;20100;-76
2022/06/28 20:08:25;;;;;;;9.07;5.10;;;;;;;19.54;100.00;93457.44;5003757;28;20144;-75
2022/06/28 20:10:52;;;;;;;6.38;5.03;;;;;;;19.55;100.00;93458.97;5005652;28;20543;-76
2022/06/28 20:13:20;;;;;;;9.02;5.63;;;;;;;19.55;100.00;93460.81;5005823;28;20088;-76
2022/06/28 20:15:48;;;;;;;8.57;5.15;;;;;;;19.47;100.00;93455.06;5005154;28;20453;-76
2022/06/28 20:18:14;;;;;;;9.10;5.32;;;;;;;19.50;100.00;93462.34;5005353;28;20789;-76
2022/06/28 20:20:41;;;;;;;7.03;5.10;;;;;;;19.34;100.00;93461.56;5005419;28;20038;-76
2022/06/28 20:23:08;;;;;;;8.27;4.93;;;;;;;19.32;100.00;93455.03;5005532;28;20093;-76
2022/06/28 20:25:35;;;;;;;8.40;5.45;;;;;;;19.35;100.00;93468.31;5005506;28;20497;-76
2022/06/28 20:28:02;;;;;;;10.60;5.47;;;;;;;19.21;100.00;93467.28;5005084;28;20049;-76
2022/06/28 20:30:33;;;;;;;7.75;5.32;;;;;;;19.13;100.00;93467.75;4996926;28;20522;-76
2022/06/28 20:33:00;;;;;;;6.95;5.43;;;;;;;18.88;100.00;93464.78;5006360;28;20049;-76
2022/06/28 20:35:27;;;;;;;8.60;6.28;;;;;;;18.89;100.00;93466.34;5008441;28;20049;-76
2022/06/28 20:37:54;;;;;;;8.82;5.45;;;;;;;18.81;100.00;93469.44;5009065;28;20121;-76
2022/06/28 20:40:21;;;;;;;9.52;5.97;;;;;;;18.79;100.00;93464.50;5008575;28;20092;-76
2022/06/28 20:42:46;;;;;;;8.15;5.65;;;;;;;18.85;100.00;93464.50;5008648;28;20049;-76
2022/06/28 20:45:14;;;;;;;8.60;6.10;;;;;;;18.78;100.00;93455.13;5009156;28;20494;-76
2022/06/28 20:47:42;;;;;;;17.52;6.10;;;;;;;18.92;100.00;93476.25;5009588;28;20054;-76
2022/06/28 20:50:10;;;;;;;7.40;5.00;;;;;;;18.88;100.00;93469.22;5009157;28;20101;-77
2022/06/28 20:52:38;;;;;;;7.43;5.30;;;;;;;18.93;100.00;93479.66;5009389;28;20465;-76
2022/06/28 20:55:06;;;;;;;5.95;4.55;;;;;;;18.93;100.00;93484.88;5008930;28;20494;-76
2022/06/28 20:57:33;;;;;;;6.25;5.28;;;;;;;18.87;100.00;93478.84;5010897;28;20054;-75
2022/06/28 20:59:59;;;;;;;7.18;5.45;;;;;;;18.77;100.00;93471.00;5012945;28;20050;-76
2022/06/28 21:02:26;;;;;;;8.65;5.63;;;;;;;18.74;100.00;93474.88;5013089;28;20049;-76
2022/06/28 21:04:54;;;;;;;9.00;4.95;;;;;;;18.70;100.00;93466.81;5012424;28;20045;-76
2022/06/28 21:07:21;;;;;;;7.47;5.05;;;;;;;18.66;100.00;93480.59;5012395;28;20108;-75
2022/06/28 21:09:48;;;;;;;14.13;5.65;;;;;;;18.61;100.00;93481.31;5012378;28;20120;-75
2022/06/28 21:12:14;;;;;;;8.07;4.45;;;;;;;18.60;100.00;93484.97;5011861;28;20100;-75
2022/06/28 21:14:42;;;;;;;9.80;5.35;;;;;;;18.53;100.00;93487.03;5012120;28;20092;-75
2022/06/28 21:17:09;;;;;;;8.38;5.53;;;;;;;18.53;100.00;93492.22;5012705;28;20133;-76
2022/06/28 21:19:35;;;;;;;7.22;5.72;;;;;;;18.53;100.00;93497.44;5012414;28;20445;-75
2022/06/28 21:22:04;;;;;;;7.20;5.50;;;;;;;18.48;100.00;93498.19;5012403;28;20108;-75
2022/06/28 21:24:30;;;;;;;6.75;4.90;;;;;;;18.44;100.00;93497.13;5013142;28;20042;-75
2022/06/28 21:26:57;;;;;;;7.43;5.05;;;;;;;18.37;100.00;93494.72;5012771;28;20054;-75
2022/06/28 21:29:24;;;;;;;6.88;5.25;;;;;;;18.29;100.00;93493.38;5012542;28;20092;-75
2022/06/28 21:31:51;;;;;;;18.10;6.28;;;;;;;18.22;100.00;93494.63;5012625;28;20053;-75
2022/06/28 21:34:17;;;;;;;6.18;4.93;;;;;;;18.14;100.00;93495.88;5012400;28;20053;-75
2022/06/28 21:36:44;;;;;;;8.80;5.38;;;;;;;18.09;100.00;93501.06;5012606;28;20058;-75
2022/06/28 21:39:13;;;;;;;8.57;5.55;;;;;;;18.05;100.00;93500.72;5012507;28;20050;-75
2022/06/28 21:41:39;;;;;;;6.90;5.35;;;;;;;17.81;100.00;93469.88;5012335;28;20950;-75
2022/06/28 21:44:07;;;;;;;8.65;5.32;;;;;;;18.08;100.00;93502.06;5012205;28;20103;-75
2022/06/28 21:46:33;;;;;;;6.57;4.80;;;;;;;18.05;100.00;93498.13;5012180;28;20058;-75
2022/06/28 21:49:00;;;;;;;5.43;4.65;;;;;;;18.09;100.00;93504.44;5012301;28;20092;-75
2022/06/28 21:51:47;;;;;;;8.65;5.05;;;;;;;18.08;100.00;93502.88;5011849;28;20050;-75
2022/06/28 21:54:16;;;;;;;6.45;5.20;;;;;;;17.99;100.00;93497.31;5012189;28;20140;-75
2022/06/28 21:56:43;;;;;;;6.10;4.72;;;;;;;17.94;100.00;93499.06;5011643;28;20042;-76
2022/06/28 21:59:12;;;;;;;6.80;4.88;;;;;;;17.92;100.00;93503.75;5011904;28;20057;-76
2022/06/28 22:01:40;;;;;;;6.90;5.40;;;;;;;17.85;100.00;93512.53;5012377;28;20461;-76
2022/06/28 22:04:07;;;;;;;8.48;5.28;;;;;;;17.85;100.00;93514.34;5011566;28;20053;-75
2022/06/28 22:06:34;;;;;;;8.15;6.00;;;;;;;17.77;100.00;93511.16;5011245;28;20050;-76
2022/06/28 22:09:01;;;;;;;7.80;5.65;;;;;;;17.67;100.00;93502.53;5011141;28;20510;-76
2022/06/28 22:11:32;;;;;;;8.50;5.78;;;;;;;17.62;100.00;93491.03;5011814;28;20050;-75
2022/06/28 22:13:59;;;;;;;10.60;5.72;;;;;;;17.57;100.00;93498.00;5012008;28;20045;-76
2022/06/28 22:16:26;;;;;;;8.52;6.07;;;;;;;17.59;100.00;93501.91;5011712;28;20088;-75
2022/06/28 22:18:53;;;;;;;13.05;6.32;;;;;;;17.58;100.00;93497.75;5011766;28;20466;-76
2022/06/28 22:21:20;;;;;;;9.98;6.32;;;;;;;17.59;100.00;93499.31;5012101;28;20050;-76
2022/06/28 22:23:46;;;;;;;8.10;6.10;;;;;;;17.50;100.00;93490.44;5011723;28;20486;-76
2022/06/28 22:26:13;;;;;;;13.63;6.15;;;;;;;17.52;100.00;93493.53;5011532;28;20417;-76
2022/06/28 22:28:41;;;;;;;7.60;5.70;;;;;;;17.58;100.00;93489.97;4993525;28;20042;-76
2022/06/28 22:31:08;;;;;;;8.27;5.82;;;;;;;17.61;100.00;93491.28;5009927;28;20119;-76
2022/06/28 22:33:35;;;;;;;7.85;5.65;;;;;;;17.59;100.00;93494.13;5011162;28;20049;-75
2022/06/28 22:36:02;;;;;;;6.88;5.63;;;;;;;17.45;100.00;93488.53;5011560;28;20148;-77
2022/06/28 22:38:29;;;;;;;12.95;6.60;;;;;;;17.45;100.00;93492.97;5010865;28;20053;-76
2022/06/28 22:40:55;;;;;;;9.25;5.28;;;;;;;17.39;100.00;93499.91;5011397;28;20097;-76
2022/06/28 22:43:22;;;;;;;8.10;5.97;;;;;;;17.35;100.00;93493.63;5011388;28;20460;-75
2022/06/28 22:45:50;;;;;;;7.20;5.90;;;;;;;17.41;100.00;93490.06;5011126;28;20165;-75
2022/06/28 22:48:18;;;;;;;8.52;6.43;;;;;;;17.42;100.00;93485.66;5011209;28;20099;-76
2022/06/28 22:50:45;;;;;;;7.63;5.88;;;;;;;17.43;100.00;93493.22;5010994;28;20172;-76
2022/06/28 22:53:12;;;;;;;8.27;5.93;;;;;;;17.34;100.00;93482.47;5010525;28;20166;-76
2022/06/28 22:55:39;;;;;;;8.73;7.00;;;;;;;17.39;100.00;93486.16;5010438;28;20116;-76
2022/06/28 22:58:06;;;;;;;7.07;5.85;;;;;;;17.38;100.00;93492.34;5010553;28;20045;-76
2022/06/28 23:00:32;;;;;;;7.45;5.85;;;;;;;17.38;100.00;93489.75;5010360;28;20045;-75
2022/06/28 23:03:00;;;;;;;6.95;5.60;;;;;;;17.34;100.00;93492.06;5010266;28;20050;-75
2022/06/28 23:05:27;;;;;;;9.55;6.05;;;;;;;17.40;100.00;93493.69;5008911;28;20119;-76
2022/06/28 23:07:54;;;;;;;11.63;6.05;;;;;;;17.38;100.00;93500.94;5009472;28;20399;-76
2022/06/28 23:13:05;;;;;;;10.53;6.23;;;;;;;17.30;100.00;93489.19;5005044;28;20123;-75
2022/06/28 23:15:32;;;;;;;9.82;6.90;;;;;;;17.24;100.00;93484.97;5010509;28;20122;-76
2022/06/28 23:18:00;;;;;;;10.60;6.63;;;;;;;17.22;100.00;93487.81;5010587;28;20093;-75
2022/06/28 23:20:27;;;;;;;10.57;6.55;;;;;;;17.20;100.00;93483.88;5009355;28;20050;-75
2022/06/28 23:22:54;;;;;;;8.90;6.40;;;;;;;17.18;100.00;93488.53;5010626;28;20137;-75
2022/06/28 23:25:21;;;;;;;14.45;7.30;;;;;;;17.13;100.00;93486.66;5010373;28;20204;-75
2022/06/28 23:27:47;;;;;;;10.20;6.38;;;;;;;17.08;100.00;93499.59;4996024;28;20050;-74
2022/06/28 23:30:14;;;;;;;14.23;6.53;;;;;;;16.99;100.00;93482.84;4995740;28;20046;-75
2022/06/28 23:32:41;;;;;;;11.70;6.70;;;;;;;16.91;100.00;93490.06;5009698;28;20042;-75
2022/06/28 23:35:10;;;;;;;11.48;7.28;;;;;;;16.80;100.00;93470.22;5009653;28;20053;-75
2022/06/28 23:37:37;;;;;;;10.27;8.15;;;;;;;16.52;100.00;93470.13;5009808;28;20045;-75
2022/06/28 23:40:04;;;;;;;10.25;6.80;;;;;;;16.60;100.00;93473.31;5009851;28;20046;-75
2022/06/28 23:42:31;;;;;;;11.10;7.00;;;;;;;16.62;100.00;93464.25;5009419;28;20494;-75
2022/06/28 23:44:58;;;;;;;10.65;7.00;;;;;;;16.69;100.00;93474.47;5009665;28;20041;-75
2022/06/28 23:47:25;;;;;;;11.85;6.78;;;;;;;16.66;100.00;93470.56;5009822;28;20461;-75
2022/06/28 23:49:51;;;;;;;11.20;6.97;;;;;;;16.62;100.00;93469.44;5009796;28;20049;-75
2022/06/28 23:52:19;;;;;;;9.63;7.05;;;;;;;16.58;100.00;93472.78;5006893;28;20046;-75
2022/06/28 23:57:30;;;;;;;10.32;6.97;;;;;;;16.58;100.00;93470.19;4996930;28;20076;-75
2022/06/28 23:59:57;;;;;;;9.65;6.95;;;;;;;16.57;100.00;93477.16;4989659;28;20096;-76
